Time;durP1;ratioP1;P1;durP2;ratioP2;P2;SDS_P1;SDS_P2;PMS_P1;PMS_P2;Temp;Humidity;BMP_temperature;BMP_pressure;BME280_temperature;BME280_humidity;BME280_pressure;Samples;Min_cycle;Max_cycle;Signal;HPM_P1;HPM_P2
2021/08/08 00:00:25;;;;;;;11.82;7.40;;;26.20;49.10;;;;;;4181842;28;20063;-66
2021/08/08 00:02:27;;;;;;;9.13;7.10;;;26.10;49.00;;;;;;4192809;28;20117;-66
2021/08/08 00:04:29;;;;;;;8.45;6.10;;;26.20;49.10;;;;;;4198443;28;20064;-63
2021/08/08 00:06:31;;;;;;;12.25;6.20;;;26.20;48.90;;;;;;4198443;28;20108;-60
2021/08/08 00:08:34;;;;;;;16.15;4.93;;;26.20;49.10;;;;;;4199314;28;20104;-61
2021/08/08 00:10:36;;;;;;;10.13;4.80;;;26.20;49.00;;;;;;4199383;28;20041;-59
2021/08/08 00:12:38;;;;;;;7.22;5.07;;;26.20;49.10;;;;;;4199282;28;20105;-59
2021/08/08 00:14:40;;;;;;;7.40;4.80;;;26.20;49.00;;;;;;4199455;28;20437;-59
2021/08/08 00:16:42;;;;;;;8.50;4.32;;;26.10;48.90;;;;;;4199310;28;20053;-59
2021/08/08 00:18:44;;;;;;;8.82;4.82;;;26.20;49.00;;;;;;4199315;28;20048;-59
2021/08/08 00:20:47;;;;;;;7.47;5.40;;;26.20;48.90;;;;;;4199284;28;20049;-59
2021/08/08 00:22:49;;;;;;;11.02;5.10;;;26.20;48.80;;;;;;4199073;28;20109;-59
2021/08/08 00:24:51;;;;;;;8.82;6.25;;;26.10;48.80;;;;;;4199290;28;20480;-59
2021/08/08 00:26:53;;;;;;;10.68;7.10;;;26.20;48.80;;;;;;4199008;28;20105;-58
2021/08/08 00:28:55;;;;;;;12.15;8.93;;;26.20;48.60;;;;;;4198213;28;20112;-59
2021/08/08 00:30:58;;;;;;;14.75;10.50;;;26.10;48.60;;;;;;4199247;28;20052;-60
2021/08/08 00:33:00;;;;;;;13.05;8.82;;;26.10;48.40;;;;;;4199110;28;20072;-58
2021/08/08 00:35:02;;;;;;;12.95;7.72;;;26.10;48.50;;;;;;4198703;28;20049;-59
2021/08/08 00:37:04;;;;;;;8.85;6.47;;;26.10;48.50;;;;;;4198441;28;20067;-60
2021/08/08 00:39:06;;;;;;;12.32;7.65;;;26.10;48.60;;;;;;4188231;28;20053;-63
2021/08/08 00:41:08;;;;;;;10.63;6.97;;;26.10;48.30;;;;;;4181664;28;20079;-58
2021/08/08 00:43:11;;;;;;;11.35;7.50;;;26.10;48.30;;;;;;4181730;28;20084;-58
2021/08/08 00:45:18;;;;;;;11.50;7.05;;;26.10;48.40;;;;;;4182437;28;20049;-58
2021/08/08 00:47:20;;;;;;;9.98;6.07;;;26.10;48.50;;;;;;4181807;28;20798;-62
2021/08/08 00:49:22;;;;;;;16.30;8.18;;;26.10;48.50;;;;;;4181539;28;20075;-61
2021/08/08 00:51:27;;;;;;;17.65;5.90;;;26.10;48.30;;;;;;4181474;28;20046;-63
2021/08/08 00:53:30;;;;;;;14.13;6.53;;;26.10;48.50;;;;;;4181434;28;20042;-62
2021/08/08 00:55:33;;;;;;;11.23;6.18;;;26.10;48.50;;;;;;4181508;28;20057;-63
2021/08/08 00:57:35;;;;;;;10.45;6.15;;;26.10;48.40;;;;;;4181447;28;20046;-60
2021/08/08 00:59:37;;;;;;;11.10;6.30;;;26.10;48.50;;;;;;4181512;28;20084;-60
2021/08/08 01:01:45;;;;;;;10.55;6.65;;;26.00;48.50;;;;;;4181497;28;20049;-61
2021/08/08 01:03:48;;;;;;;11.68;6.63;;;26.10;48.50;;;;;;4182130;28;20076;-58
2021/08/08 01:05:53;;;;;;;13.27;7.30;;;26.10;48.50;;;;;;4182248;28;20059;-58
2021/08/08 01:08:04;;;;;;;12.70;6.43;;;26.00;48.60;;;;;;4181545;28;20049;-58
2021/08/08 01:10:08;;;;;;;11.88;5.85;;;26.00;48.60;;;;;;4182365;28;20105;-57
2021/08/08 01:12:10;;;;;;;9.10;5.20;;;26.00;48.60;;;;;;4182550;28;20045;-66
2021/08/08 01:14:14;;;;;;;9.93;5.22;;;26.00;48.60;;;;;;4184469;28;20049;-63
2021/08/08 01:16:18;;;;;;;7.83;5.97;;;26.00;48.70;;;;;;4184381;28;20052;-63
2021/08/08 01:18:20;;;;;;;;;;;26.00;48.60;;;;;;4184119;28;20045;-62
2021/08/08 01:20:26;;;;;;;24.67;4.90;;;26.00;48.70;;;;;;4184799;28;19932;-61
2021/08/08 01:22:31;;;;;;;10.20;5.82;;;26.10;48.80;;;;;;4185263;28;20063;-58
2021/08/08 01:24:33;;;;;;;12.05;5.72;;;26.10;48.20;;;;;;4185218;28;20054;-58
2021/08/08 01:26:35;;;;;;;9.55;5.95;;;26.00;48.10;;;;;;4185233;28;20103;-58
2021/08/08 01:28:38;;;;;;;8.98;5.35;;;26.00;48.10;;;;;;4195373;28;20047;-58
2021/08/08 01:30:41;;;;;;;11.20;6.20;;;26.00;48.10;;;;;;4198076;28;20036;-57
2021/08/08 01:32:43;;;;;;;10.57;5.45;;;26.00;48.00;;;;;;4201023;28;20045;-58
2021/08/08 01:34:47;;;;;;;13.63;5.55;;;26.00;48.10;;;;;;4201109;28;20041;-57
2021/08/08 01:36:49;;;;;;;13.20;5.80;;;25.90;48.10;;;;;;4200647;28;20037;-57
2021/08/08 01:39:07;;;;;;;12.85;5.72;;;25.90;48.10;;;;;;4201054;28;20049;-57
2021/08/08 01:41:12;;;;;;;11.25;6.50;;;25.90;48.10;;;;;;4200207;28;20059;-57
2021/08/08 01:43:21;;;;;;;9.75;5.97;;;25.90;48.10;;;;;;4200990;28;20079;-57
2021/08/08 01:45:23;;;;;;;9.52;5.38;;;25.90;48.10;;;;;;4201275;28;20078;-57
2021/08/08 01:47:29;;;;;;;8.45;6.03;;;25.90;48.00;;;;;;4201239;28;20049;-57
2021/08/08 01:49:33;;;;;;;10.23;5.85;;;25.80;48.20;;;;;;4201137;28;20049;-57
2021/08/08 01:51:35;;;;;;;10.23;6.37;;;25.90;48.10;;;;;;4201301;28;20052;-57
2021/08/08 01:53:38;;;;;;;8.75;5.53;;;25.90;48.10;;;;;;4201097;28;20045;-58
2021/08/08 01:55:41;;;;;;;12.05;6.10;;;25.90;48.10;;;;;;4201259;28;20079;-57
2021/08/08 01:57:43;;;;;;;9.10;5.53;;;25.80;48.10;;;;;;4201198;28;20049;-57
2021/08/08 01:59:45;;;;;;;9.30;5.82;;;25.80;48.10;;;;;;4201086;28;20051;-58
2021/08/08 02:01:47;;;;;;;9.48;5.60;;;25.80;48.20;;;;;;4200668;28;20049;-57
2021/08/08 02:03:49;;;;;;;10.50;5.70;;;25.80;48.20;;;;;;4201121;28;20053;-57
2021/08/08 02:05:51;;;;;;;10.93;5.38;;;25.80;48.20;;;;;;4200160;28;20075;-64
2021/08/08 02:07:53;;;;;;;10.50;5.97;;;25.80;48.20;;;;;;4200030;28;20131;-64
2021/08/08 02:09:55;;;;;;;11.63;6.63;;;25.80;48.20;;;;;;4200072;28;20060;-64
2021/08/08 02:11:57;;;;;;;10.73;6.10;;;25.80;48.30;;;;;;4200235;28;20127;-64
2021/08/08 02:13:59;;;;;;;12.70;6.82;;;25.80;48.20;;;;;;4199941;28;20105;-64
2021/08/08 02:16:02;;;;;;;11.98;6.15;;;25.70;48.20;;;;;;4199867;28;20045;-64
2021/08/08 02:18:04;;;;;;;9.90;6.28;;;25.70;48.30;;;;;;4199931;28;20056;-64
2021/08/08 02:20:09;;;;;;;8.35;6.13;;;25.70;48.30;;;;;;4199858;28;20041;-64
2021/08/08 02:22:11;;;;;;;13.88;6.68;;;25.70;48.30;;;;;;4199994;28;20071;-64
2021/08/08 02:24:13;;;;;;;17.58;7.93;;;25.70;48.20;;;;;;4199969;28;20041;-63
2021/08/08 02:26:15;;;;;;;14.40;7.30;;;25.70;48.30;;;;;;4199843;28;20041;-63
2021/08/08 02:28:18;;;;;;;11.93;6.45;;;25.70;48.20;;;;;;4199706;28;20045;-63
2021/08/08 02:30:20;;;;;;;17.48;5.82;;;25.70;48.20;;;;;;4199748;28;20059;-63
2021/08/08 02:32:22;;;;;;;10.23;5.93;;;25.70;48.20;;;;;;4199677;28;20045;-63
2021/08/08 02:34:24;;;;;;;12.45;6.90;;;25.70;48.10;;;;;;4199812;28;20049;-63
2021/08/08 02:36:26;;;;;;;14.73;5.80;;;25.60;48.00;;;;;;4199738;28;20044;-63
2021/08/08 02:38:28;;;;;;;14.68;6.30;;;25.60;48.00;;;;;;4199639;28;20078;-63
2021/08/08 02:40:29;;;;;;;11.85;6.35;;;25.70;48.00;;;;;;4199599;28;20471;-64
2021/08/08 02:42:32;;;;;;;10.60;6.55;;;25.60;48.00;;;;;;4199515;28;20108;-64
2021/08/08 02:44:34;;;;;;;12.25;7.13;;;25.70;48.00;;;;;;4199711;28;20053;-64
2021/08/08 02:46:36;;;;;;;14.18;6.68;;;25.60;47.90;;;;;;4199552;28;20460;-64
2021/08/08 02:48:38;;;;;;;10.88;6.57;;;25.70;47.90;;;;;;4198519;28;20049;-63
2021/08/08 02:50:40;;;;;;;13.43;6.95;;;25.70;47.90;;;;;;4199463;28;20079;-61
2021/08/08 02:52:42;;;;;;;10.10;7.05;;;25.60;48.00;;;;;;4199285;28;20052;-62
2021/08/08 02:54:45;;;;;;;11.85;5.97;;;25.60;48.00;;;;;;4199408;28;20056;-61
2021/08/08 02:56:47;;;;;;;13.10;6.20;;;25.60;48.10;;;;;;4199481;28;20045;-61
2021/08/08 02:58:49;;;;;;;9.73;6.03;;;25.60;48.10;;;;;;4199315;28;20396;-61
2021/08/08 03:00:51;;;;;;;10.50;6.72;;;25.50;48.20;;;;;;4199148;28;20104;-61
2021/08/08 03:02:53;;;;;;;15.20;7.95;;;25.50;48.20;;;;;;4199156;28;20056;-61
2021/08/08 03:04:55;;;;;;;10.77;6.13;;;25.60;48.20;;;;;;4198990;28;20110;-61
2021/08/08 03:06:58;;;;;;;13.43;6.50;;;25.50;48.30;;;;;;4199326;28;20076;-61
2021/08/08 03:09:00;;;;;;;14.05;7.03;;;25.50;48.30;;;;;;4199090;28;20051;-61
2021/08/08 03:11:01;;;;;;;11.18;6.60;;;25.50;48.30;;;;;;4199067;28;20048;-61
2021/08/08 03:13:03;;;;;;;12.85;6.57;;;25.50;48.40;;;;;;4199136;28;20112;-61
2021/08/08 03:15:06;;;;;;;13.15;7.13;;;25.50;48.40;;;;;;4199074;28;20057;-61
2021/08/08 03:17:08;;;;;;;11.88;6.68;;;25.50;48.30;;;;;;4199073;28;20048;-61
2021/08/08 03:19:11;;;;;;;18.33;7.32;;;25.50;48.30;;;;;;4199100;28;20052;-61
2021/08/08 03:21:13;;;;;;;10.55;6.93;;;25.50;48.30;;;;;;4198918;28;20055;-61
2021/08/08 03:23:17;;;;;;;15.98;6.93;;;25.50;48.40;;;;;;4198815;28;20056;-61
2021/08/08 03:25:19;;;;;;;13.48;7.47;;;25.50;48.40;;;;;;4198792;28;20108;-61
2021/08/08 03:27:21;;;;;;;19.27;7.15;;;25.40;48.50;;;;;;4198806;28;20049;-62
2021/08/08 03:29:23;;;;;;;23.02;8.38;;;25.40;48.40;;;;;;4198782;28;20049;-61
2021/08/08 03:31:27;;;;;;;18.52;6.82;;;25.50;48.40;;;;;;4198876;28;20044;-62
2021/08/08 03:33:29;;;;;;;13.63;7.00;;;25.40;48.50;;;;;;4198768;28;20070;-61
2021/08/08 03:35:31;;;;;;;16.55;6.90;;;25.40;48.50;;;;;;4188427;28;20056;-61
2021/08/08 03:37:33;;;;;;;11.77;6.55;;;25.40;48.60;;;;;;4196017;28;20041;-62
2021/08/08 03:39:35;;;;;;;13.48;6.70;;;25.40;48.60;;;;;;4198617;28;20049;-61
2021/08/08 03:41:37;;;;;;;11.95;6.07;;;25.40;48.70;;;;;;4198759;28;20059;-62
2021/08/08 03:43:39;;;;;;;16.75;6.63;;;25.50;48.70;;;;;;4198725;28;20072;-63
2021/08/08 03:45:41;;;;;;;16.23;6.47;;;25.40;48.80;;;;;;4198520;28;20070;-62
2021/08/08 03:47:43;;;;;;;12.63;6.88;;;25.40;48.70;;;;;;4198467;28;20045;-62
2021/08/08 03:49:45;;;;;;;9.80;5.78;;;25.40;48.80;;;;;;4198440;28;20044;-62
2021/08/08 03:51:47;;;;;;;10.35;6.18;;;25.40;48.80;;;;;;4198573;28;20051;-62
2021/08/08 03:53:49;;;;;;;12.98;6.50;;;25.40;48.80;;;;;;4198647;28;20045;-62
2021/08/08 03:55:51;;;;;;;10.52;6.22;;;25.40;49.00;;;;;;4198426;28;20044;-62
2021/08/08 03:57:56;;;;;;;11.95;5.63;;;25.40;48.90;;;;;;4198469;28;20049;-62
2021/08/08 03:59:57;;;;;;;12.98;6.57;;;25.40;48.90;;;;;;4198452;28;20108;-62
2021/08/08 04:01:59;;;;;;;13.48;5.95;;;25.40;48.90;;;;;;4198513;28;20059;-62
2021/08/08 04:04:02;;;;;;;9.73;5.80;;;25.40;49.00;;;;;;4198456;28;20079;-63
2021/08/08 04:06:04;;;;;;;9.10;5.78;;;25.40;49.00;;;;;;4198397;28;20059;-63
2021/08/08 04:08:07;;;;;;;12.40;5.97;;;25.40;49.10;;;;;;4198345;28;20075;-62
2021/08/08 04:10:10;;;;;;;15.68;6.68;;;25.40;49.00;;;;;;4198242;28;20048;-63
2021/08/08 04:12:12;;;;;;;10.40;5.85;;;25.40;49.00;;;;;;4198371;28;20045;-63
2021/08/08 04:14:14;;;;;;;10.35;5.93;;;25.40;49.00;;;;;;4198338;28;20114;-63
2021/08/08 04:16:16;;;;;;;8.88;6.15;;;25.40;49.10;;;;;;4198428;28;20101;-63
2021/08/08 04:18:18;;;;;;;11.20;6.20;;;25.40;49.20;;;;;;4198500;28;20045;-62
2021/08/08 04:20:24;;;;;;;10.30;6.75;;;25.40;49.30;;;;;;4198470;28;20083;-62
2021/08/08 04:22:26;;;;;;;9.55;6.25;;;25.40;49.40;;;;;;4198318;28;20512;-62
2021/08/08 04:24:28;;;;;;;15.30;6.25;;;25.40;49.40;;;;;;4198287;28;20079;-62
2021/08/08 04:26:30;;;;;;;13.50;6.40;;;25.40;49.50;;;;;;4192124;28;20053;-62
2021/08/08 04:28:39;;;;;;;16.90;6.50;;;25.40;49.70;;;;;;4198269;28;20064;-62
2021/08/08 04:30:41;;;;;;;14.52;6.43;;;25.40;49.80;;;;;;4192803;28;20049;-62
2021/08/08 04:32:43;;;;;;;14.52;6.63;;;25.50;49.90;;;;;;4198229;28;20041;-62
2021/08/08 04:34:45;;;;;;;13.23;7.05;;;25.50;49.90;;;;;;4198286;28;20052;-62
2021/08/08 04:36:47;;;;;;;13.68;6.18;;;25.50;50.00;;;;;;4198130;28;20045;-62
2021/08/08 04:38:49;;;;;;;15.07;6.68;;;25.40;50.00;;;;;;4186727;28;20041;-62
2021/08/08 04:40:51;;;;;;;9.88;5.53;;;25.50;50.20;;;;;;4181441;28;20045;-62
2021/08/08 04:42:53;;;;;;;10.07;5.65;;;25.50;50.10;;;;;;4181588;28;20046;-62
2021/08/08 04:44:55;;;;;;;9.93;5.65;;;25.50;50.10;;;;;;4181734;28;20045;-63
2021/08/08 04:46:57;;;;;;;12.25;5.90;;;25.40;50.10;;;;;;4181918;28;20075;-63
2021/08/08 04:48:59;;;;;;;9.57;5.90;;;25.50;50.10;;;;;;4188237;28;20063;-62
2021/08/08 04:51:01;;;;;;;10.32;6.22;;;25.40;50.10;;;;;;4193601;28;20099;-62
2021/08/08 04:53:03;;;;;;;8.43;5.63;;;25.50;50.10;;;;;;4184699;28;20117;-62
2021/08/08 04:55:06;;;;;;;8.32;5.20;;;25.50;50.20;;;;;;4184770;28;20045;-62
2021/08/08 04:57:08;;;;;;;7.35;4.80;;;25.50;50.10;;;;;;4184653;28;20041;-62
2021/08/08 04:59:10;;;;;;;15.55;4.68;;;25.50;50.10;;;;;;4184539;28;20045;-62
2021/08/08 05:01:12;;;;;;;8.30;5.10;;;25.50;50.00;;;;;;4184466;28;20417;-62
2021/08/08 05:03:14;;;;;;;8.13;4.03;;;25.50;50.00;;;;;;4184545;28;20072;-63
2021/08/08 05:05:16;;;;;;;6.90;4.63;;;25.50;50.10;;;;;;4184426;28;20057;-62
2021/08/08 05:07:18;;;;;;;6.80;4.80;;;25.50;50.40;;;;;;4184648;28;20076;-62
2021/08/08 05:09:23;;;;;;;8.45;4.90;;;25.50;50.30;;;;;;4184405;28;20045;-62
2021/08/08 05:11:25;;;;;;;;;;;25.60;50.30;;;;;;4184744;28;20056;-62
2021/08/08 05:13:29;;;;;;;8.15;4.80;;;25.60;50.40;;;;;;4184333;28;19935;-62
2021/08/08 05:15:32;;;;;;;8.48;4.82;;;25.60;50.40;;;;;;4184315;28;20050;-62
2021/08/08 05:17:34;;;;;;;10.88;4.97;;;25.60;50.40;;;;;;4184227;28;20104;-62
2021/08/08 05:19:35;;;;;;;8.02;4.82;;;25.60;50.40;;;;;;4184424;28;20045;-62
2021/08/08 05:21:38;;;;;;;7.40;4.93;;;25.60;50.50;;;;;;4184247;28;20105;-62
2021/08/08 05:23:40;;;;;;;8.77;5.60;;;25.60;50.50;;;;;;4184255;28;20071;-62
2021/08/08 05:25:42;;;;;;;5.78;4.40;;;25.60;50.60;;;;;;4184234;28;20049;-62
2021/08/08 05:27:44;;;;;;;11.38;5.25;;;25.60;50.60;;;;;;4184142;28;20056;-62
2021/08/08 05:29:46;;;;;;;10.13;5.10;;;25.60;50.70;;;;;;4184176;28;20052;-62
2021/08/08 05:31:48;;;;;;;8.90;4.95;;;25.60;50.80;;;;;;4184286;28;20046;-62
2021/08/08 05:33:50;;;;;;;9.07;5.10;;;25.60;50.90;;;;;;4183990;28;20046;-62
2021/08/08 05:35:55;;;;;;;8.88;5.20;;;25.60;51.00;;;;;;4184038;28;20054;-62
2021/08/08 05:37:57;;;;;;;8.75;5.13;;;25.60;51.10;;;;;;4183957;28;20045;-62
2021/08/08 05:40:04;;;;;;;6.30;4.53;;;25.70;51.20;;;;;;4183957;28;20069;-60
2021/08/08 05:42:06;;;;;;;10.65;4.38;;;25.70;51.60;;;;;;4183897;28;20108;-60
2021/08/08 05:44:08;;;;;;;11.13;6.07;;;25.70;51.50;;;;;;4184051;28;20053;-60
2021/08/08 05:46:10;;;;;;;9.75;5.30;;;25.60;52.00;;;;;;4184049;28;20046;-60
2021/08/08 05:48:13;;;;;;;17.27;5.25;;;25.60;52.20;;;;;;4183932;28;20072;-63
2021/08/08 05:50:15;;;;;;;10.25;5.95;;;25.60;52.20;;;;;;4183781;28;20095;-63
2021/08/08 05:52:17;;;;;;;9.05;6.03;;;25.70;52.10;;;;;;4183773;28;20050;-64
2021/08/08 05:54:19;;;;;;;16.15;7.35;;;25.60;52.20;;;;;;4183844;28;20049;-64
2021/08/08 05:56:22;;;;;;;12.23;7.22;;;25.50;52.70;;;;;;4183812;28;20057;-63
2021/08/08 05:58:24;;;;;;;16.08;6.35;;;25.50;52.70;;;;;;4183364;28;20046;-64
2021/08/08 06:00:25;;;;;;;10.18;5.05;;;25.50;52.20;;;;;;4183668;28;20053;-63
2021/08/08 06:02:27;;;;;;;14.98;7.15;;;25.60;52.00;;;;;;4183615;28;20076;-63
2021/08/08 06:04:30;;;;;;;13.32;6.90;;;25.60;52.30;;;;;;4188289;28;20049;-61
2021/08/08 06:06:32;;;;;;;10.90;6.55;;;25.50;53.00;;;;;;4190993;28;20520;-63
2021/08/08 06:08:34;;;;;;;16.08;7.80;;;25.50;52.20;;;;;;4183726;28;20075;-63
2021/08/08 06:10:38;;;;;;;13.48;7.38;;;25.50;52.60;;;;;;4198011;28;20049;-63
2021/08/08 06:12:43;;;;;;;12.02;7.35;;;25.60;52.00;;;;;;4200116;28;20105;-63
2021/08/08 06:14:45;;;;;;;13.77;7.85;;;25.70;52.00;;;;;;4199975;28;20067;-63
2021/08/08 06:16:47;;;;;;;20.13;7.22;;;25.70;52.10;;;;;;4195397;28;20046;-63
2021/08/08 06:18:49;;;;;;;10.73;7.18;;;25.50;52.00;;;;;;4183314;28;20079;-63
2021/08/08 06:20:52;;;;;;;13.90;6.47;;;25.50;52.50;;;;;;4183570;28;20913;-62
2021/08/08 06:22:54;;;;;;;9.75;5.38;;;25.60;52.40;;;;;;4183464;28;20077;-62
2021/08/08 06:24:56;;;;;;;7.78;5.03;;;25.70;51.40;;;;;;4183262;28;20049;-61
2021/08/08 06:26:58;;;;;;;8.63;4.97;;;25.70;51.00;;;;;;4183315;28;20049;-61
2021/08/08 06:29:01;;;;;;;10.32;4.95;;;25.80;51.10;;;;;;4184240;28;20049;-59
2021/08/08 06:31:03;;;;;;;8.35;4.72;;;25.80;50.70;;;;;;4184121;28;20053;-59
2021/08/08 06:33:05;;;;;;;8.68;4.70;;;25.80;50.60;;;;;;4184219;28;20046;-59
2021/08/08 06:35:07;;;;;;;6.97;4.47;;;25.80;50.70;;;;;;4184090;28;20046;-58
2021/08/08 06:37:10;;;;;;;6.25;4.43;;;25.90;50.60;;;;;;4184148;28;20108;-59
2021/08/08 06:39:11;;;;;;;6.93;4.78;;;25.90;50.60;;;;;;4184012;28;20042;-59
2021/08/08 06:41:13;;;;;;;25.85;9.40;;;25.90;50.70;;;;;;4184003;28;20050;-59
2021/08/08 06:43:15;;;;;;;15.43;5.32;;;25.90;51.40;;;;;;4184134;28;20061;-59
2021/08/08 06:45:17;;;;;;;8.57;3.90;;;25.90;51.10;;;;;;4183932;28;20151;-59
2021/08/08 06:47:19;;;;;;;8.05;3.83;;;25.90;50.90;;;;;;4183987;28;20064;-59
2021/08/08 06:49:21;;;;;;;6.78;3.92;;;25.90;50.90;;;;;;4183817;28;20057;-59
2021/08/08 06:51:23;;;;;;;5.68;4.05;;;25.90;50.60;;;;;;4183904;28;20050;-58
2021/08/08 06:53:25;;;;;;;6.47;3.50;;;25.90;50.60;;;;;;4183828;28;20045;-58
2021/08/08 06:55:27;;;;;;;9.45;3.60;;;25.90;50.70;;;;;;4183000;28;20045;-58
2021/08/08 06:57:29;;;;;;;6.97;3.45;;;25.90;50.60;;;;;;4183767;28;20076;-58
2021/08/08 06:59:31;;;;;;;32.58;9.57;;;25.90;50.60;;;;;;4183698;28;20072;-59
2021/08/08 07:01:33;;;;;;;24.55;7.60;;;26.00;51.50;;;;;;4183688;28;20041;-59
2021/08/08 07:03:36;;;;;;;11.07;5.47;;;25.90;51.40;;;;;;4183719;28;20049;-59
2021/08/08 07:05:38;;;;;;;13.80;4.78;;;26.00;51.30;;;;;;4183467;28;20128;-60
2021/08/08 07:07:40;;;;;;;8.20;3.83;;;26.00;51.00;;;;;;4183616;28;20042;-59
2021/08/08 07:09:42;;;;;;;12.02;4.07;;;26.00;51.00;;;;;;4182744;28;20055;-60
2021/08/08 07:11:45;;;;;;;6.72;3.20;;;26.00;51.00;;;;;;4183585;28;20051;-60
2021/08/08 07:13:47;;;;;;;13.50;4.25;;;26.00;50.60;;;;;;4183490;28;20101;-60
2021/08/08 07:15:49;;;;;;;6.78;3.50;;;26.00;50.80;;;;;;4183509;28;20041;-60
2021/08/08 07:17:51;;;;;;;8.35;3.28;;;26.00;50.80;;;;;;4182527;28;20048;-60
2021/08/08 07:19:53;;;;;;;6.60;3.42;;;26.00;50.80;;;;;;4183436;28;20088;-60
2021/08/08 07:21:55;;;;;;;5.38;3.00;;;26.00;50.80;;;;;;4183391;28;20076;-60
2021/08/08 07:23:58;;;;;;;6.38;3.22;;;26.10;51.00;;;;;;4183391;28;20049;-60
2021/08/08 07:26:00;;;;;;;6.05;2.95;;;26.10;50.70;;;;;;4183280;28;20056;-60
2021/08/08 07:28:02;;;;;;;15.30;6.43;;;26.10;51.00;;;;;;4183343;28;20068;-60
2021/08/08 07:30:05;;;;;;;13.52;4.35;;;26.00;51.20;;;;;;4183197;28;20046;-60
2021/08/08 07:32:07;;;;;;;13.80;4.25;;;26.00;51.30;;;;;;4183256;28;20056;-60
2021/08/08 07:34:09;;;;;;;10.90;3.38;;;26.00;50.80;;;;;;4183249;28;20050;-60
2021/08/08 07:36:11;;;;;;;10.93;3.45;;;26.00;50.90;;;;;;4183310;28;20076;-60
2021/08/08 07:38:13;;;;;;;7.68;3.10;;;26.00;50.90;;;;;;4183213;28;20059;-60
2021/08/08 07:40:16;;;;;;;5.00;2.17;;;26.00;50.70;;;;;;4183138;28;20050;-60
2021/08/08 07:42:18;;;;;;;7.03;2.47;;;26.10;50.80;;;;;;4183140;28;20059;-60
2021/08/08 07:44:20;;;;;;;4.55;2.35;;;26.00;50.90;;;;;;4183082;28;20112;-60
2021/08/08 07:46:22;;;;;;;6.75;2.45;;;26.10;50.70;;;;;;4183135;28;20063;-60
2021/08/08 07:48:24;;;;;;;3.92;2.08;;;26.00;51.00;;;;;;4183034;28;20049;-60
2021/08/08 07:50:25;;;;;;;4.72;1.67;;;26.10;50.90;;;;;;4182941;28;20049;-60
2021/08/08 07:52:28;;;;;;;4.78;2.50;;;26.10;50.60;;;;;;4183137;28;20045;-60
2021/08/08 07:54:30;;;;;;;5.13;2.03;;;26.10;50.70;;;;;;4182148;28;20084;-60
2021/08/08 07:56:32;;;;;;;4.85;2.25;;;26.10;50.50;;;;;;4182424;28;20068;-62
2021/08/08 07:58:34;;;;;;;3.42;1.33;;;26.10;50.60;;;;;;4181956;28;20076;-62
2021/08/08 08:00:36;;;;;;;3.95;1.65;;;26.10;50.80;;;;;;4182087;28;20052;-62
2021/08/08 08:02:38;;;;;;;3.13;1.88;;;26.10;50.80;;;;;;4182076;28;20054;-62
2021/08/08 08:04:43;;;;;;;4.18;1.50;;;26.10;50.70;;;;;;4181677;28;20058;-62
2021/08/08 08:06:46;;;;;;;6.05;1.60;;;26.10;50.70;;;;;;4181873;28;20108;-62
2021/08/08 08:08:48;;;;;;;3.17;1.67;;;26.10;50.50;;;;;;4181801;28;20053;-62
2021/08/08 08:10:50;;;;;;;1.42;1.20;;;26.10;50.70;;;;;;4181625;28;20046;-62
2021/08/08 08:12:52;;;;;;;3.00;1.23;;;26.10;50.60;;;;;;4181843;28;20046;-62
2021/08/08 08:14:54;;;;;;;3.65;1.10;;;26.10;50.70;;;;;;4181089;28;20513;-63
2021/08/08 08:16:56;;;;;;;3.33;1.50;;;26.10;50.80;;;;;;4181673;28;20053;-62
2021/08/08 08:18:58;;;;;;;1.60;1.40;;;26.10;50.30;;;;;;4181817;28;20045;-61
2021/08/08 08:21:00;;;;;;;16.98;5.03;;;26.10;50.40;;;;;;4182231;28;20049;-64
2021/08/08 08:23:02;;;;;;;24.00;8.05;;;26.20;52.90;;;;;;4185335;28;20059;-63
2021/08/08 08:25:05;;;;;;;20.45;6.43;;;26.10;52.80;;;;;;4184433;28;20068;-63
2021/08/08 08:27:07;;;;;;;23.30;6.15;;;26.10;53.40;;;;;;4187062;28;20049;-60
2021/08/08 08:29:09;;;;;;;30.55;5.30;;;26.10;52.30;;;;;;4201248;28;20045;-61
2021/08/08 08:31:11;;;;;;;33.80;4.90;;;26.10;52.60;;;;;;4198563;28;20097;-61
2021/08/08 08:33:13;;;;;;;20.35;5.38;;;26.20;52.80;;;;;;4184846;28;20041;-61
2021/08/08 08:35:16;;;;;;;13.48;4.45;;;26.20;52.70;;;;;;4184765;28;20050;-61
2021/08/08 08:37:19;;;;;;;14.23;5.18;;;26.20;52.20;;;;;;4188316;28;20045;-64
2021/08/08 08:39:21;;;;;;;9.07;3.95;;;26.20;52.10;;;;;;4184176;28;20150;-64
2021/08/08 08:41:30;;;;;;;15.13;4.90;;;26.20;50.40;;;;;;4184499;28;20050;-64
2021/08/08 08:43:33;;;;;;;25.30;4.78;;;26.20;51.70;;;;;;4184471;28;20076;-62
2021/08/08 08:45:45;;;;;;;16.02;4.40;;;26.20;51.50;;;;;;4184429;28;20081;-63
2021/08/08 08:47:47;;;;;;;16.83;4.70;;;26.10;51.40;;;;;;4192093;28;20041;-61
2021/08/08 08:50:10;;;;;;;17.60;4.22;;;26.20;51.60;;;;;;4201914;28;20051;-62
2021/08/08 08:52:17;;;;;;;12.98;3.80;;;26.20;52.20;;;;;;4201288;28;20041;-62
2021/08/08 08:54:20;;;;;;;9.27;4.60;;;26.20;51.40;;;;;;4200810;28;20045;-63
2021/08/08 08:56:22;;;;;;;11.27;4.72;;;26.20;51.80;;;;;;4201418;28;20041;-61
2021/08/08 08:58:25;;;;;;;14.18;3.70;;;26.30;51.70;;;;;;4201076;28;20063;-60
2021/08/08 09:00:27;;;;;;;19.83;4.35;;;26.30;51.90;;;;;;4200768;28;20072;-63
2021/08/08 09:02:29;;;;;;;14.10;3.97;;;26.30;52.90;;;;;;4200718;28;20055;-63
2021/08/08 09:04:31;;;;;;;11.27;4.05;;;26.30;52.10;;;;;;4200448;28;20076;-61
2021/08/08 09:06:34;;;;;;;16.98;4.93;;;26.30;52.30;;;;;;4200627;28;20104;-61
2021/08/08 09:08:36;;;;;;;12.70;4.32;;;26.30;53.10;;;;;;4200613;28;20059;-61
2021/08/08 09:10:39;;;;;;;11.00;4.03;;;26.20;51.90;;;;;;4200440;28;20049;-61
2021/08/08 09:12:42;;;;;;;9.43;2.83;;;26.20;51.50;;;;;;4200753;28;20469;-61
2021/08/08 09:14:44;;;;;;;8.77;3.30;;;26.20;47.00;;;;;;4200656;28;20059;-60
2021/08/08 09:16:55;;;;;;;8.00;3.40;;;26.20;50.10;;;;;;4200290;28;20048;-61
2021/08/08 09:18:57;;;;;;;9.98;3.55;;;26.20;50.60;;;;;;4200353;28;20052;-61
2021/08/08 09:21:08;;;;;;;9.18;3.17;;;26.20;51.00;;;;;;4200359;28;20101;-61
2021/08/08 09:23:11;;;;;;;7.85;3.70;;;26.20;50.80;;;;;;4200740;28;20109;-61
2021/08/08 09:25:22;;;;;;;5.60;3.25;;;26.20;50.70;;;;;;4200552;28;20048;-61
2021/08/08 09:27:36;;;;;;;7.72;3.00;;;26.20;50.80;;;;;;4200374;28;20052;-61
2021/08/08 09:29:42;;;;;;;5.50;3.17;;;26.20;50.30;;;;;;4199439;28;20045;-61
2021/08/08 09:31:47;;;;;;;11.48;3.50;;;26.20;50.00;;;;;;4199732;28;20051;-61
2021/08/08 09:33:49;;;;;;;20.05;5.03;;;26.20;50.00;;;;;;4198914;28;20120;-60
2021/08/08 09:35:53;;;;;;;15.75;5.30;;;26.20;50.70;;;;;;4199959;28;20045;-60
2021/08/08 09:38:00;;;;;;;19.40;5.38;;;26.20;51.20;;;;;;4200295;28;20041;-60
2021/08/08 09:40:12;;;;;;;12.80;5.28;;;26.10;51.40;;;;;;4200175;28;20051;-61
2021/08/08 09:42:23;;;;;;;13.07;4.15;;;26.20;51.50;;;;;;4200154;28;20053;-61
2021/08/08 09:44:25;;;;;;;8.02;4.13;;;26.20;51.00;;;;;;4200147;28;20074;-61
2021/08/08 09:46:27;;;;;;;9.02;4.45;;;26.20;50.70;;;;;;4200152;28;20057;-61
2021/08/08 09:48:37;;;;;;;9.27;4.22;;;26.20;51.70;;;;;;4200004;28;20049;-61
2021/08/08 09:50:43;;;;;;;11.80;4.20;;;26.10;50.60;;;;;;4199262;28;20048;-61
2021/08/08 09:53:05;;;;;;;10.27;4.45;;;26.20;51.10;;;;;;4200071;28;20079;-61
2021/08/08 09:55:27;;;;;;;11.43;4.85;;;26.20;50.50;;;;;;4200112;28;20076;-60
2021/08/08 09:57:39;;;;;;;13.75;4.95;;;26.10;52.40;;;;;;4200153;28;20371;-60
2021/08/08 09:59:48;;;;;;;13.63;5.55;;;26.20;52.30;;;;;;4199869;28;20071;-61
2021/08/08 10:01:50;;;;;;;9.57;3.90;;;26.20;52.90;;;;;;4199882;28;20051;-61
2021/08/08 10:03:53;;;;;;;14.10;3.92;;;26.10;51.60;;;;;;4199864;28;20055;-60
2021/08/08 10:05:56;;;;;;;12.10;4.18;;;26.10;51.30;;;;;;4199738;28;20060;-60
2021/08/08 10:07:59;;;;;;;15.32;5.22;;;26.10;53.00;;;;;;4200012;28;20053;-61
2021/08/08 10:10:01;;;;;;;13.48;5.35;;;26.10;53.20;;;;;;4199974;28;20105;-61
2021/08/08 10:12:35;;;;;;;8.90;4.25;;;26.10;53.30;;;;;;4199596;28;20053;-60
2021/08/08 10:14:37;;;;;;;11.35;4.88;;;26.10;52.80;;;;;;4199913;28;20108;-61
2021/08/08 10:16:42;;;;;;;15.52;4.30;;;26.10;52.50;;;;;;4198946;28;20076;-61
2021/08/08 10:18:54;;;;;;;10.38;4.38;;;26.10;53.60;;;;;;4199634;28;20041;-60
2021/08/08 10:20:57;;;;;;;13.02;4.40;;;26.10;53.40;;;;;;4199717;28;20140;-60
2021/08/08 10:23:02;;;;;;;10.73;4.50;;;26.10;53.10;;;;;;4199808;28;20078;-61
2021/08/08 10:25:04;;;;;;;;;;;26.10;53.40;;;;;;4200190;28;20063;-61
2021/08/08 10:27:06;;;;;;;11.57;4.00;;;26.10;53.30;;;;;;4199460;28;19926;-61
2021/08/08 10:29:08;;;;;;;11.73;4.70;;;26.10;52.80;;;;;;4199499;28;20048;-61
2021/08/08 10:31:17;;;;;;;10.05;4.32;;;26.20;53.20;;;;;;4199397;28;20041;-60
2021/08/08 10:33:19;;;;;;;10.25;4.00;;;26.20;53.30;;;;;;4199408;28;20100;-60
2021/08/08 10:35:21;;;;;;;14.60;5.13;;;26.10;53.40;;;;;;4199357;28;20383;-61